createdAt,value
2022-12-24T00:01:01.069Z,93659.81
2022-12-24T00:03:28.232Z,93662.94
2022-12-24T00:05:55.201Z,93659.47
2022-12-24T00:08:22.255Z,93665.41
2022-12-24T00:10:53.594Z,93679.22
2022-12-24T00:13:21.581Z,93671.88
2022-12-24T00:15:49.096Z,93673.31
2022-12-24T00:18:16.067Z,93688.91
2022-12-24T00:20:46.971Z,93706.06
2022-12-24T00:23:13.995Z,93712.84
2022-12-24T00:25:40.705Z,93708.94
2022-12-24T00:28:07.538Z,93718.09
2022-12-24T00:30:34.276Z,93722.66
2022-12-24T00:33:01.003Z,93711.50
2022-12-24T00:35:27.687Z,93708.59
2022-12-24T00:37:54.356Z,93709.38
2022-12-24T00:40:20.990Z,93713.63
2022-12-24T00:42:47.619Z,93722.44
2022-12-24T00:45:14.312Z,93723.75
2022-12-24T00:47:41.231Z,93722.19
2022-12-24T00:50:08.351Z,93721.25
2022-12-24T00:52:35.300Z,93722.69
2022-12-24T00:55:02.448Z,93729.59
2022-12-24T00:57:29.288Z,93729.13
2022-12-24T00:59:56.063Z,93733.38
2022-12-24T01:02:23.179Z,93731.47
2022-12-24T01:05:08.552Z,93738.06
2022-12-24T01:07:35.412Z,93728.81
2022-12-24T01:10:02.395Z,93748.13
2022-12-24T01:12:29.354Z,93739.13
2022-12-24T01:14:56.002Z,93750.81
2022-12-24T01:17:22.666Z,93762.63
2022-12-24T01:19:49.373Z,93771.00
2022-12-24T01:22:16.198Z,93782.69
2022-12-24T01:24:42.956Z,93778.31
2022-12-24T01:27:09.800Z,93770.31
2022-12-24T01:29:36.539Z,93778.66
2022-12-24T01:32:03.950Z,93778.94
2022-12-24T01:34:30.846Z,93780.72
2022-12-24T01:36:57.648Z,93787.63
2022-12-24T01:39:24.863Z,93793.16
2022-12-24T01:42:10.807Z,93801.63
2022-12-24T01:44:43.868Z,93802.41
2022-12-24T01:47:24.727Z,93811.50
2022-12-24T01:49:59.671Z,93809.09
2022-12-24T01:52:30.001Z,93797.41
2022-12-24T01:55:10.530Z,93801.88
2022-12-24T01:57:48.633Z,93793.53
2022-12-24T02:00:16.688Z,93794.00
2022-12-24T02:02:50.847Z,93792.88
2022-12-24T02:05:24.510Z,93806.38
2022-12-24T02:07:51.756Z,93809.25
2022-12-24T02:10:18.624Z,93823.75
2022-12-24T02:12:46.984Z,93832.88
2022-12-24T02:15:16.953Z,93826.75
2022-12-24T02:18:14.937Z,93817.47
2022-12-24T02:21:15.039Z,93831.63
2022-12-24T02:24:03.669Z,93836.31
2022-12-24T02:26:57.716Z,93835.22
2022-12-24T02:29:27.957Z,93843.69
2022-12-24T02:32:02.460Z,93836.00
2022-12-24T02:34:51.479Z,93838.81
2022-12-24T02:37:33.472Z,93834.56
2022-12-24T02:40:13.836Z,93835.66
2022-12-24T02:42:46.849Z,93844.34
2022-12-24T02:45:28.165Z,93853.81
2022-12-24T02:47:56.033Z,93855.91
2022-12-24T02:50:23.672Z,93862.34
2022-12-24T02:52:50.399Z,93872.94
2022-12-24T02:55:54.674Z,93887.56
2022-12-24T02:58:36.502Z,93886.78
2022-12-24T03:01:18.620Z,93874.38
2022-12-24T03:04:07.151Z,93896.56
2022-12-24T03:06:57.051Z,93904.31
2022-12-24T03:09:38.744Z,93908.97
2022-12-24T03:12:15.981Z,93923.47
2022-12-24T03:14:44.600Z,93916.00
2022-12-24T03:17:12.267Z,93915.53
2022-12-24T03:19:40.635Z,93919.94
2022-12-24T03:22:10.156Z,93917.13
2022-12-24T03:24:37.121Z,93907.09
2022-12-24T03:27:06.972Z,93912.75
2022-12-24T03:29:33.658Z,93920.31
2022-12-24T03:32:03.006Z,93926.44
2022-12-24T03:34:30.413Z,93931.00
2022-12-24T03:36:57.208Z,93931.66
2022-12-24T03:39:24.015Z,93940.78
2022-12-24T03:41:50.724Z,93954.75
2022-12-24T03:44:17.359Z,93966.88
2022-12-24T03:46:44.007Z,93962.94
2022-12-24T03:49:10.675Z,93960.13
2022-12-24T03:51:37.321Z,93948.66
2022-12-24T03:54:04.135Z,93950.22
2022-12-24T03:56:30.805Z,93955.56
2022-12-24T03:58:57.464Z,93943.78
2022-12-24T04:01:24.194Z,93957.16
2022-12-24T04:03:50.979Z,93972.38
2022-12-24T04:06:18.009Z,93986.06
2022-12-24T04:08:44.760Z,93980.06
2022-12-24T04:11:14.960Z,93978.03
2022-12-24T04:13:41.632Z,93977.56
2022-12-24T04:16:11.992Z,93976.47
2022-12-24T04:18:39.986Z,93977.91
2022-12-24T04:21:07.451Z,93978.22
2022-12-24T04:23:36.167Z,93981.97
2022-12-24T04:26:04.853Z,93983.44
2022-12-24T04:28:33.442Z,93974.16
2022-12-24T04:31:04.835Z,93994.44
2022-12-24T04:33:31.832Z,93992.97
2022-12-24T04:35:59.718Z,93985.91
2022-12-24T04:38:26.920Z,93978.69
2022-12-24T04:41:09.119Z,93977.56
2022-12-24T04:43:36.122Z,93968.47
2022-12-24T04:46:08.215Z,93975.38
2022-12-24T04:48:34.931Z,93976.78
2022-12-24T04:51:05.959Z,93966.91
2022-12-24T04:53:32.897Z,93968.47
2022-12-24T04:55:59.534Z,93972.38
2022-12-24T04:58:26.495Z,93978.81
2022-12-24T05:00:54.088Z,93973.50
2022-12-24T05:03:20.940Z,93979.28
2022-12-24T05:05:47.968Z,93979.75
2022-12-24T05:08:14.693Z,93976.63
2022-12-24T05:10:41.379Z,93976.94
2022-12-24T05:13:08.023Z,93988.41
2022-12-24T05:15:34.656Z,93993.59
2022-12-24T05:18:01.425Z,93992.81
2022-12-24T05:20:28.047Z,93987.66
2022-12-24T05:23:13.387Z,93995.38
2022-12-24T05:25:58.566Z,94003.88
2022-12-24T05:28:25.433Z,93996.19
2022-12-24T05:30:52.103Z,93987.38
2022-12-24T05:33:18.811Z,93998.53
2022-12-24T05:35:45.452Z,94000.56
2022-12-24T05:38:12.077Z,94006.69
2022-12-24T05:40:38.704Z,94002.13
2022-12-24T05:43:05.377Z,94004.03
2022-12-24T05:45:32.098Z,94004.03
2022-12-24T05:47:58.806Z,94013.59
2022-12-24T05:50:26.113Z,94010.94
2022-12-24T05:53:04.927Z,94000.88
2022-12-24T05:55:31.632Z,93996.66
2022-12-24T05:57:58.416Z,93999.63
2022-12-24T06:00:25.254Z,93996.50
2022-12-24T06:02:51.991Z,93997.13
2022-12-24T06:05:18.667Z,93984.75
2022-12-24T06:07:45.302Z,93992.59
2022-12-24T06:10:11.947Z,93998.91
2022-12-24T06:12:38.946Z,93993.41
2022-12-24T06:15:06.276Z,94003.13
2022-12-24T06:17:33.872Z,94000.31
2022-12-24T06:20:00.607Z,94019.34
2022-12-24T06:22:27.472Z,94002.69
2022-12-24T06:24:54.081Z,94008.66
2022-12-24T06:27:20.751Z,94011.63
2022-12-24T06:29:47.371Z,94027.16
2022-12-24T06:32:13.991Z,94020.88
2022-12-24T06:34:40.618Z,94011.78
2022-12-24T06:37:07.437Z,94006.44
2022-12-24T06:39:34.047Z,94009.91
2022-12-24T06:42:01.105Z,94008.50
2022-12-24T06:44:27.728Z,94006.94
2022-12-24T06:46:54.349Z,94014.31
2022-12-24T06:49:21.105Z,94021.22
2022-12-24T06:51:47.812Z,94019.31
2022-12-24T06:54:14.452Z,94024.66
2022-12-24T06:56:41.190Z,94023.88
2022-12-24T06:59:07.812Z,94033.44
2022-12-24T07:01:34.665Z,94031.56
2022-12-24T07:04:01.407Z,94041.16
2022-12-24T07:06:29.832Z,94057.63
2022-12-24T07:08:57.219Z,94059.66
2022-12-24T07:11:25.443Z,94063.59
2022-12-24T07:13:52.171Z,94068.44
2022-12-24T07:16:18.950Z,94062.78
2022-12-24T07:18:45.669Z,94071.28
2022-12-24T07:21:12.367Z,94073.94
2022-12-24T07:23:39.004Z,94082.72
2022-12-24T07:26:06.900Z,94077.06
2022-12-24T07:28:33.788Z,94077.22
2022-12-24T07:31:00.764Z,94087.28
2022-12-24T07:33:27.942Z,94084.94
2022-12-24T07:36:02.689Z,94090.41
2022-12-24T07:38:30.613Z,94098.44
2022-12-24T07:40:58.199Z,94114.91
2022-12-24T07:43:26.013Z,94117.91
2022-12-24T07:45:56.900Z,94122.94
2022-12-24T07:48:24.831Z,94114.28
2022-12-24T07:50:52.397Z,94137.22
2022-12-24T07:53:19.589Z,94129.69
2022-12-24T07:55:46.373Z,94131.56
2022-12-24T07:58:13.000Z,94136.91
2022-12-24T08:00:39.761Z,94141.94
2022-12-24T08:03:06.538Z,94149.94
2022-12-24T08:05:36.950Z,94146.16
2022-12-24T08:08:03.742Z,94145.84
2022-12-24T08:10:30.507Z,94148.50
2022-12-24T08:12:57.161Z,94151.97
2022-12-24T08:15:23.781Z,94152.75
2022-12-24T08:17:50.732Z,94157.94
2022-12-24T08:20:17.487Z,94165.63
2022-12-24T08:22:44.201Z,94172.22
2022-12-24T08:25:11.096Z,94168.00
2022-12-24T08:27:38.175Z,94173.50
2022-12-24T08:30:05.829Z,94179.31
2022-12-24T08:32:32.670Z,94190.16
2022-12-24T08:34:59.641Z,94177.25
2022-12-24T08:37:26.313Z,94178.50
2022-12-24T08:39:52.936Z,94167.19
2022-12-24T08:42:19.802Z,94162.31
2022-12-24T08:44:46.471Z,94177.41
2022-12-24T08:47:13.304Z,94173.00
2022-12-24T08:49:40.139Z,94182.09
2022-12-24T08:52:07.207Z,94188.53
2022-12-24T08:54:33.848Z,94191.22
2022-12-24T08:57:00.504Z,94193.09
2022-12-24T08:59:27.126Z,94197.66
2022-12-24T09:01:53.863Z,94197.97
2022-12-24T09:04:20.726Z,94205.69
2022-12-24T09:06:47.392Z,94201.91
2022-12-24T09:09:14.049Z,94211.34
2022-12-24T09:11:40.729Z,94208.66
2022-12-24T09:14:07.401Z,94221.41
2022-12-24T09:16:34.155Z,94217.94
2022-12-24T09:19:00.856Z,94225.31
2022-12-24T09:21:27.662Z,94228.91
2022-12-24T09:23:54.314Z,94232.22
2022-12-24T09:26:24.341Z,94231.91
2022-12-24T09:28:51.830Z,94237.72
2022-12-24T09:31:19.171Z,94242.44
2022-12-24T09:33:48.041Z,94251.09
2022-12-24T09:36:15.158Z,94248.19
2022-12-24T09:38:41.965Z,94258.00
2022-12-24T09:41:34.861Z,94247.81
2022-12-24T09:44:20.902Z,94248.31
2022-12-24T09:46:49.459Z,94242.16
2022-12-24T09:49:20.297Z,94252.94
2022-12-24T09:51:52.555Z,94256.34
2022-12-24T09:54:22.047Z,94260.69
2022-12-24T09:56:49.163Z,94258.97
2022-12-24T09:59:22.153Z,94252.66
2022-12-24T10:01:50.992Z,94248.69
2022-12-24T10:04:20.566Z,94248.75
2022-12-24T10:07:11.241Z,94248.03
2022-12-24T10:09:59.275Z,94239.94
2022-12-24T10:12:44.578Z,94248.44
2022-12-24T10:15:20.924Z,94236.22
2022-12-24T10:18:11.059Z,94234.88
2022-12-24T10:20:56.403Z,94239.28
2022-12-24T10:23:49.173Z,94242.66
2022-12-24T10:26:46.475Z,94252.25
2022-12-24T10:29:34.577Z,94242.44
2022-12-24T10:32:17.455Z,94249.16
2022-12-24T10:34:57.550Z,94248.44
2022-12-24T10:37:26.255Z,94245.97
2022-12-24T10:39:53.247Z,94248.97
2022-12-24T10:42:21.928Z,94249.94
2022-12-24T10:44:52.880Z,94248.38
2022-12-24T10:47:22.438Z,94257.47
2022-12-24T10:50:03.563Z,94260.09
2022-12-24T10:52:35.552Z,94262.69
2022-12-24T10:55:20.819Z,94268.94
2022-12-24T10:58:00.096Z,94260.91
2022-12-24T11:00:31.900Z,94269.84
2022-12-24T11:03:22.997Z,94253.75
2022-12-24T11:06:02.039Z,94255.66
2022-12-24T11:08:28.745Z,94259.25
2022-12-24T11:10:56.762Z,94257.88
2022-12-24T11:13:38.316Z,94255.75
2022-12-24T11:16:23.959Z,94257.31
2022-12-24T11:18:53.545Z,94250.66
2022-12-24T11:21:40.907Z,94255.00
2022-12-24T11:24:13.683Z,94249.13
2022-12-24T11:26:42.775Z,94244.38
2022-12-24T11:29:27.304Z,94231.00
2022-12-24T11:32:16.694Z,94237.97
2022-12-24T11:34:44.279Z,94253.25
2022-12-24T11:37:24.622Z,94252.41
2022-12-24T11:39:54.435Z,94249.41
2022-12-24T11:42:35.415Z,94251.06
2022-12-24T11:45:05.809Z,94249.41
2022-12-24T11:47:40.451Z,94247.66
2022-12-24T11:50:22.553Z,94247.75
2022-12-24T11:53:05.347Z,94252.00
2022-12-24T11:55:42.333Z,94249.19
2022-12-24T11:58:18.171Z,94257.75
2022-12-24T12:00:46.173Z,94249.38
2022-12-24T12:03:40.657Z,94250.28
2022-12-24T12:06:25.966Z,94245.97
2022-12-24T12:08:57.003Z,94254.81
2022-12-24T12:11:27.462Z,94255.41
2022-12-24T12:13:56.973Z,94248.72
2022-12-24T12:17:00.969Z,94256.13
2022-12-24T12:19:40.733Z,94254.97
2022-12-24T12:22:18.923Z,94256.97
2022-12-24T12:24:51.001Z,94248.78
2022-12-24T12:27:27.870Z,94250.69
2022-12-24T12:30:00.309Z,94254.50
2022-12-24T12:32:39.733Z,94246.88
2022-12-24T12:35:17.018Z,94246.63
2022-12-24T12:37:52.581Z,94250.78
2022-12-24T12:40:19.478Z,94248.66
2022-12-24T12:43:16.197Z,94253.97
2022-12-24T12:45:50.412Z,94252.31
2022-12-24T12:48:25.772Z,94245.63
2022-12-24T12:51:31.548Z,94255.84
2022-12-24T12:54:21.117Z,94254.59
2022-12-24T12:56:52.638Z,94262.38
2022-12-24T12:59:22.610Z,94259.22
2022-12-24T13:02:19.068Z,94267.41
2022-12-24T13:05:00.962Z,94266.63
2022-12-24T13:07:43.765Z,94266.09
2022-12-24T13:10:58.055Z,94268.19
2022-12-24T13:14:01.473Z,94265.69
2022-12-24T13:16:46.673Z,94267.91
2022-12-24T13:19:34.299Z,94277.06
2022-12-24T13:22:05.051Z,94273.94
2022-12-24T13:24:33.642Z,94269.56
2022-12-24T13:27:15.981Z,94277.75
2022-12-24T13:29:44.159Z,94283.56
2022-12-24T13:32:20.185Z,94277.59
2022-12-24T13:34:53.118Z,94277.59
2022-12-24T13:37:24.171Z,94277.06
2022-12-24T13:40:06.261Z,94281.00
2022-12-24T13:42:51.708Z,94278.97
2022-12-24T13:45:30.744Z,94273.16
2022-12-24T13:48:06.536Z,94270.91
2022-12-24T13:50:48.025Z,94279.75
2022-12-24T13:53:38.430Z,94282.00
2022-12-24T13:56:20.560Z,94282.03
2022-12-24T13:58:53.129Z,94280.78
2022-12-24T14:01:24.219Z,94285.81
2022-12-24T14:03:54.748Z,94281.44
2022-12-24T14:06:25.083Z,94282.41
2022-12-24T14:08:55.691Z,94288.44
2022-12-24T14:11:25.120Z,94293.44
2022-12-24T14:13:55.702Z,94297.09
2022-12-24T14:16:24.900Z,94301.22
2022-12-24T14:19:02.352Z,94290.03
2022-12-24T14:21:36.580Z,94282.19
2022-12-24T14:24:07.216Z,94287.53
2022-12-24T14:26:43.496Z,94281.25
2022-12-24T14:29:24.959Z,94288.38
2022-12-24T14:31:54.587Z,94281.31
2022-12-24T14:34:21.590Z,94282.28
2022-12-24T14:36:49.976Z,94284.34
2022-12-24T14:39:36.547Z,94282.78
2022-12-24T14:42:36.153Z,94282.19
2022-12-24T14:45:15.170Z,94273.38
2022-12-24T14:47:47.063Z,94261.09
2022-12-24T14:50:16.649Z,94259.06
2022-12-24T14:53:06.275Z,94247.88
2022-12-24T14:55:47.583Z,94263.63
2022-12-24T14:58:34.044Z,94270.03
2022-12-24T15:01:20.689Z,94285.97
2022-12-24T15:04:11.154Z,94289.28
2022-12-24T15:06:41.446Z,94274.81
2022-12-24T15:09:19.189Z,94281.13
2022-12-24T15:11:47.516Z,94279.59
2022-12-24T15:14:14.978Z,94270.00
2022-12-24T15:16:42.135Z,94270.66
2022-12-24T15:19:29.876Z,94285.31
2022-12-24T15:21:56.607Z,94283.75
2022-12-24T15:24:32.254Z,94296.19
2022-12-24T15:27:02.875Z,94291.78
2022-12-24T15:29:32.353Z,94301.09
2022-12-24T15:32:01.014Z,94308.81
2022-12-24T15:34:37.255Z,94304.69
2022-12-24T15:37:18.138Z,94293.22
2022-12-24T15:39:53.313Z,94295.88
2022-12-24T15:42:22.654Z,94306.91
2022-12-24T15:45:04.660Z,94313.03
2022-12-24T15:47:45.885Z,94307.53
2022-12-24T15:50:23.740Z,94306.09
2022-12-24T15:53:19.471Z,94325.91
2022-12-24T15:55:44.748Z,94326.06
2022-12-24T15:58:27.315Z,94317.88
2022-12-24T16:01:09.451Z,94328.56
2022-12-24T16:03:39.818Z,94341.78
2022-12-24T16:06:08.899Z,94343.00
2022-12-24T16:08:39.083Z,94339.88
2022-12-24T16:11:05.761Z,94339.09
2022-12-24T16:13:51.711Z,94339.84
2022-12-24T16:16:21.464Z,94340.94
2022-12-24T16:18:54.197Z,94339.69
2022-12-24T16:21:37.651Z,94341.09
2022-12-24T16:24:13.869Z,94338.75
2022-12-24T16:26:41.382Z,94334.16
2022-12-24T16:29:08.581Z,94341.38
2022-12-24T16:31:56.715Z,94333.66
2022-12-24T16:34:29.507Z,94339.78
2022-12-24T16:36:57.054Z,94336.97
2022-12-24T16:39:31.572Z,94332.56
2022-12-24T16:42:39.289Z,94325.66
2022-12-24T16:45:06.768Z,94320.88
2022-12-24T16:47:41.959Z,94328.28
2022-12-24T16:50:16.213Z,94340.22
2022-12-24T16:52:43.011Z,94346.19
2022-12-24T16:55:13.750Z,94346.31
2022-12-24T16:57:41.854Z,94359.03
2022-12-24T17:00:14.887Z,94343.13
2022-12-24T17:02:41.730Z,94356.81
2022-12-24T17:05:08.939Z,94357.44
2022-12-24T17:07:41.257Z,94350.53
2022-12-24T17:10:11.799Z,94360.25
2022-12-24T17:12:38.490Z,94346.41
2022-12-24T17:15:05.788Z,94361.03
2022-12-24T17:17:32.728Z,94372.50
2022-12-24T17:19:59.580Z,94384.75
2022-12-24T17:22:29.698Z,94390.38
2022-12-24T17:24:57.102Z,94383.47
2022-12-24T17:27:24.160Z,94385.03
2022-12-24T17:29:51.030Z,94385.03
2022-12-24T17:32:17.940Z,94382.19
2022-12-24T17:34:44.575Z,94387.53
2022-12-24T17:37:11.220Z,94382.50
2022-12-24T17:39:37.839Z,94381.91
2022-12-24T17:42:04.691Z,94384.56
2022-12-24T17:44:31.430Z,94385.16
2022-12-24T17:46:58.180Z,94387.84
2022-12-24T17:49:24.908Z,94392.69
2022-12-24T17:51:51.525Z,94393.47
2022-12-24T17:54:18.204Z,94393.34
2022-12-24T17:56:45.083Z,94391.28
2022-12-24T17:59:11.744Z,94397.91
2022-12-24T18:01:38.437Z,94396.03
2022-12-24T18:04:05.462Z,94395.25
2022-12-24T18:06:32.180Z,94399.47
2022-12-24T18:08:58.881Z,94404.50
2022-12-24T18:11:32.697Z,94408.44
2022-12-24T18:14:01.299Z,94411.28
2022-12-24T18:16:31.635Z,94408.94
2022-12-24T18:18:59.839Z,94403.59
2022-12-24T18:21:29.121Z,94408.94
2022-12-24T18:23:56.911Z,94415.69
2022-12-24T18:26:26.830Z,94418.38
2022-12-24T18:28:55.737Z,94405.63
2022-12-24T18:31:23.917Z,94410.97
2022-12-24T18:33:51.781Z,94413.34
2022-12-24T18:36:19.362Z,94412.53
2022-12-24T18:38:47.315Z,94411.44
2022-12-24T18:41:17.656Z,94411.44
2022-12-24T18:43:44.319Z,94413.63
2022-12-24T18:46:19.895Z,94412.84
2022-12-24T18:48:47.668Z,94410.34
2022-12-24T18:51:15.219Z,94394.16
2022-12-24T18:53:42.395Z,94394.50
2022-12-24T18:56:15.854Z,94395.13
2022-12-24T18:58:43.321Z,94393.84
2022-12-24T19:01:18.257Z,94394.63
2022-12-24T19:03:45.520Z,94398.25
2022-12-24T19:06:12.412Z,94405.63
2022-12-24T19:08:57.328Z,94397.47
2022-12-24T19:11:26.499Z,94402.03
2022-12-24T19:13:53.521Z,94400.75
2022-12-24T19:16:21.441Z,94406.09
2022-12-24T19:18:48.356Z,94407.00
2022-12-24T19:21:17.383Z,94404.34
2022-12-24T19:23:45.142Z,94405.13
2022-12-24T19:26:12.550Z,94404.50
2022-12-24T19:28:39.658Z,94401.84
2022-12-24T19:31:09.760Z,94405.78
2022-12-24T19:33:43.207Z,94408.28
2022-12-24T19:36:12.833Z,94403.97
2022-12-24T19:38:39.737Z,94412.47
2022-12-24T19:41:24.498Z,94409.50
2022-12-24T19:43:53.977Z,94406.81
2022-12-24T19:46:24.027Z,94399.91
2022-12-24T19:48:57.080Z,94397.25
2022-12-24T19:51:24.939Z,94402.41
2022-12-24T19:53:52.501Z,94406.44
2022-12-24T19:56:20.832Z,94403.97
2022-12-24T19:58:48.262Z,94403.00
2022-12-24T20:01:17.876Z,94405.22
2022-12-24T20:03:45.763Z,94395.75
2022-12-24T20:06:13.867Z,94413.66
2022-12-24T20:08:41.232Z,94412.56
2022-12-24T20:11:10.182Z,94417.78
2022-12-24T20:13:39.291Z,94415.91
2022-12-24T20:16:15.519Z,94409.00
2022-12-24T20:18:42.578Z,94408.53
2022-12-24T20:21:12.851Z,94409.31
2022-12-24T20:23:40.642Z,94416.81
2022-12-24T20:26:10.784Z,94407.41
2022-12-24T20:28:37.925Z,94411.34
2022-12-24T20:31:16.510Z,94430.47
2022-12-24T20:33:44.418Z,94425.75
2022-12-24T20:36:13.127Z,94420.06
2022-12-24T20:38:40.074Z,94426.84
2022-12-24T20:41:09.708Z,94439.75
2022-12-24T20:43:47.479Z,94449.31
2022-12-24T20:46:15.380Z,94453.22
2022-12-24T20:48:42.361Z,94445.03
2022-12-24T20:51:19.213Z,94451.66
2022-12-24T20:53:49.918Z,94448.00
2022-12-24T20:56:18.056Z,94450.69
2022-12-24T20:58:45.574Z,94455.41
2022-12-24T21:01:16.712Z,94453.84
2022-12-24T21:03:43.777Z,94449.88
2022-12-24T21:06:10.658Z,94452.84
2022-12-24T21:08:37.569Z,94455.53
2022-12-24T21:11:22.876Z,94453.94
2022-12-24T21:13:49.540Z,94454.44
2022-12-24T21:16:16.260Z,94452.84
2022-12-24T21:18:42.983Z,94453.94
2022-12-24T21:21:09.634Z,94452.84
2022-12-24T21:23:36.370Z,94453.75
2022-12-24T21:26:04.629Z,94451.41
2022-12-24T21:28:32.729Z,94448.72
2022-12-24T21:31:00.087Z,94439.94
2022-12-24T21:33:26.842Z,94445.88
2022-12-24T21:36:00.044Z,94445.75
2022-12-24T21:38:26.908Z,94445.56
2022-12-24T21:41:04.531Z,94446.19
2022-12-24T21:43:33.231Z,94456.25
2022-12-24T21:46:00.811Z,94459.50
2022-12-24T21:48:46.188Z,94456.25
2022-12-24T21:51:12.848Z,94468.00
2022-12-24T21:53:58.027Z,94474.13
2022-12-24T21:56:24.866Z,94475.81
2022-12-24T21:58:52.057Z,94466.56
2022-12-24T22:01:19.649Z,94475.16
2022-12-24T22:03:50.335Z,94476.25
2022-12-24T22:06:35.932Z,94474.66
2022-12-24T22:09:21.758Z,94483.94
2022-12-24T22:11:53.862Z,94478.31
2022-12-24T22:14:21.376Z,94485.22
2022-12-24T22:16:48.038Z,94481.47
2022-12-24T22:19:14.743Z,94479.41
2022-12-24T22:21:41.424Z,94483.34
2022-12-24T22:24:08.524Z,94481.47
2022-12-24T22:26:35.210Z,94489.00
2022-12-24T22:29:05.298Z,94492.25
2022-12-24T22:31:32.755Z,94487.41
2022-12-24T22:33:59.658Z,94488.69
2022-12-24T22:36:26.587Z,94497.34
2022-12-24T22:38:53.260Z,94496.53
2022-12-24T22:41:20.445Z,94491.50
2022-12-24T22:43:49.208Z,94490.44
2022-12-24T22:46:17.402Z,94483.03
2022-12-24T22:48:45.637Z,94484.44
2022-12-24T22:51:18.443Z,94480.19
2022-12-24T22:53:46.040Z,94460.06
2022-12-24T22:56:17.929Z,94453.44
2022-12-24T22:58:44.903Z,94449.81
2022-12-24T23:01:11.887Z,94439.25
2022-12-24T23:03:39.145Z,94424.22
2022-12-24T23:06:07.483Z,94431.44
2022-12-24T23:08:36.384Z,94429.56
2022-12-24T23:11:14.557Z,94433.03
2022-12-24T23:14:02.684Z,94432.81
2022-12-24T23:16:30.924Z,94419.03
2022-12-24T23:18:59.547Z,94417.47
2022-12-24T23:21:27.434Z,94410.25
2022-12-24T23:23:56.001Z,94412.59
2022-12-24T23:26:23.169Z,94410.56
2022-12-24T23:28:50.144Z,94412.53
2022-12-24T23:31:17.199Z,94413.94
2022-12-24T23:33:44.410Z,94417.69
2022-12-24T23:36:11.622Z,94416.41
2022-12-24T23:38:38.670Z,94421.44
2022-12-24T23:41:07.630Z,94419.66
2022-12-24T23:43:35.834Z,94415.13
2022-12-24T23:46:03.317Z,94407.44
2022-12-24T23:48:30.429Z,94418.88
2022-12-24T23:51:08.778Z,94422.63
2022-12-24T23:53:36.202Z,94424.50
2022-12-24T23:56:03.622Z,94425.28
2022-12-24T23:58:30.911Z,94426.38
